ポンタ・デルガダ の空港の天気 - METARとTAF

ポンタ・デルガダ空港 ( LPPD / PDL ) - ポルトガル ポンタ・デルガダ (サンミゲル島)
飛行場実況気象(Metar)
観測時間05/23 00:30 AZOST (05/23 00:30 UTC)
風向・風速北北西 3m/s
視程10km以上
天気現象
少しの雲 雲底高度 700m
気温13℃
湿度72%
気圧1024hPa
METARLPPD 230030Z 34005KT 9999 FEW023 13/08 Q1024
過去の天気等 Google飛行場航空写真 Wunderground天気予報

過去48時間のMETAR

飛行場予報(TAF)
発表時間: 5/22 23:00 AZOST (5/22 23:00 UTC)
予報対象時間: 23日0時 AZOST ~ 24日0時 AZOST
風向・風速北 5m/s
視程10km以上
少しの雲 雲底高度 760m
23日0時 AZOST ~ 23日22時 AZOST に一時的に
全天の4割程度の雲 雲底高度 610m
全天の8割程度の雲 雲底高度 1,220m
23日22時 AZOST ~ 23日24時 AZOST に徐々に
風向・風速北西 5m/s
全天の4割程度の雲 雲底高度 180m
全天の8割程度の雲 雲底高度 460m
TAF LPPD 222300Z 2300/2324 36010KT 9999 FEW025
TEMPO 2300/2322 SCT020 BKN040
BECMG 2322/2324 32010KT SCT006 BKN015